sensor_id;sensor_type;location;lat;lon;timestamp;temperature;humidity
66088;DHT22;52872;52.994;6.940;2023-05-08T00:01:29;13.70;99.90
66088;DHT22;52872;52.994;6.940;2023-05-08T00:03:57;13.60;99.90
66088;DHT22;52872;52.994;6.940;2023-05-08T00:06:24;13.60;99.90
66088;DHT22;52872;52.994;6.940;2023-05-08T00:08:51;13.50;99.90
66088;DHT22;52872;52.994;6.940;2023-05-08T00:11:17;13.50;99.90
66088;DHT22;52872;52.994;6.940;2023-05-08T00:13:44;13.40;99.90
66088;DHT22;52872;52.994;6.940;2023-05-08T00:16:12;13.40;99.90
66088;DHT22;52872;52.994;6.940;2023-05-08T00:18:39;13.40;99.90
66088;DHT22;52872;52.994;6.940;2023-05-08T00:21:06;13.30;99.90
66088;DHT22;52872;52.994;6.940;2023-05-08T00:23:33;13.30;99.90
66088;DHT22;52872;52.994;6.940;2023-05-08T00:26:00;13.30;99.90
66088;DHT22;52872;52.994;6.940;2023-05-08T00:28:27;13.20;99.90
66088;DHT22;52872;52.994;6.940;2023-05-08T00:30:54;13.20;99.90
66088;DHT22;52872;52.994;6.940;2023-05-08T00:33:21;13.10;99.90
66088;DHT22;52872;52.994;6.940;2023-05-08T00:35:48;13.10;99.90
66088;DHT22;52872;52.994;6.940;2023-05-08T00:38:15;13.10;99.90
66088;DHT22;52872;52.994;6.940;2023-05-08T00:40:42;13.00;99.90
66088;DHT22;52872;52.994;6.940;2023-05-08T00:43:09;13.00;99.90
66088;DHT22;52872;52.994;6.940;2023-05-08T00:45:38;13.00;99.90
66088;DHT22;52872;52.994;6.940;2023-05-08T00:48:06;13.00;99.90
66088;DHT22;52872;52.994;6.940;2023-05-08T00:50:34;12.90;99.90
66088;DHT22;52872;52.994;6.940;2023-05-08T00:53:02;12.90;99.90
66088;DHT22;52872;52.994;6.940;2023-05-08T00:55:31;12.90;99.90
66088;DHT22;52872;52.994;6.940;2023-05-08T00:57:58;12.80;99.90
66088;DHT22;52872;52.994;6.940;2023-05-08T01:00:26;12.80;99.90
66088;DHT22;52872;52.994;6.940;2023-05-08T01:02:53;12.80;99.90
66088;DHT22;52872;52.994;6.940;2023-05-08T01:05:20;12.80;99.90
66088;DHT22;52872;52.994;6.940;2023-05-08T01:07:47;12.70;99.90
66088;DHT22;52872;52.994;6.940;2023-05-08T01:10:14;12.70;99.90
66088;DHT22;52872;52.994;6.940;2023-05-08T01:13:07;12.70;99.90
66088;DHT22;52872;52.994;6.940;2023-05-08T01:15:53;12.80;99.90
66088;DHT22;52872;52.994;6.940;2023-05-08T01:18:35;12.70;99.90
66088;DHT22;52872;52.994;6.940;2023-05-08T01:32:45;12.60;99.90
66088;DHT22;52872;52.994;6.940;2023-05-08T01:35:20;12.60;99.90
66088;DHT22;52872;52.994;6.940;2023-05-08T01:38:06;12.50;99.90
66088;DHT22;52872;52.994;6.940;2023-05-08T01:40:54;12.60;99.90
66088;DHT22;52872;52.994;6.940;2023-05-08T01:46:26;12.50;99.90
66088;DHT22;52872;52.994;6.940;2023-05-08T01:49:07;12.50;99.90
66088;DHT22;52872;52.994;6.940;2023-05-08T01:51:44;12.50;99.90
66088;DHT22;52872;52.994;6.940;2023-05-08T01:54:20;12.50;99.90
66088;DHT22;52872;52.994;6.940;2023-05-08T01:56:49;12.50;99.90
66088;DHT22;52872;52.994;6.940;2023-05-08T01:59:21;12.40;99.90
66088;DHT22;52872;52.994;6.940;2023-05-08T02:01:52;12.40;99.90
66088;DHT22;52872;52.994;6.940;2023-05-08T02:04:21;12.50;99.90
66088;DHT22;52872;52.994;6.940;2023-05-08T02:06:50;12.40;99.90
66088;DHT22;52872;52.994;6.940;2023-05-08T02:09:20;12.40;99.90
66088;DHT22;52872;52.994;6.940;2023-05-08T02:11:48;12.40;99.90
66088;DHT22;52872;52.994;6.940;2023-05-08T02:14:18;12.40;99.90
66088;DHT22;52872;52.994;6.940;2023-05-08T02:16:47;12.30;99.90
66088;DHT22;52872;52.994;6.940;2023-05-08T02:19:17;12.30;99.90
66088;DHT22;52872;52.994;6.940;2023-05-08T02:21:46;12.30;99.90
66088;DHT22;52872;52.994;6.940;2023-05-08T02:24:14;12.30;99.90
66088;DHT22;52872;52.994;6.940;2023-05-08T02:26:43;12.20;99.90
66088;DHT22;52872;52.994;6.940;2023-05-08T02:29:10;12.20;99.90
66088;DHT22;52872;52.994;6.940;2023-05-08T02:31:40;12.10;99.90
66088;DHT22;52872;52.994;6.940;2023-05-08T02:34:08;12.10;99.90
66088;DHT22;52872;52.994;6.940;2023-05-08T02:36:36;12.10;99.90
66088;DHT22;52872;52.994;6.940;2023-05-08T02:39:04;12.10;99.90
66088;DHT22;52872;52.994;6.940;2023-05-08T02:41:34;12.00;99.90
66088;DHT22;52872;52.994;6.940;2023-05-08T02:44:01;12.00;99.90
66088;DHT22;52872;52.994;6.940;2023-05-08T02:49:31;12.00;99.90
66088;DHT22;52872;52.994;6.940;2023-05-08T02:52:12;11.90;99.90
66088;DHT22;52872;52.994;6.940;2023-05-08T02:57:34;11.90;99.90
66088;DHT22;52872;52.994;6.940;2023-05-08T03:00:10;11.90;99.90
66088;DHT22;52872;52.994;6.940;2023-05-08T03:02:41;11.90;99.90
66088;DHT22;52872;52.994;6.940;2023-05-08T03:05:14;11.90;99.90
66088;DHT22;52872;52.994;6.940;2023-05-08T03:07:42;11.80;99.90
66088;DHT22;52872;52.994;6.940;2023-05-08T03:10:12;11.80;99.90
66088;DHT22;52872;52.994;6.940;2023-05-08T03:12:47;11.80;99.90
66088;DHT22;52872;52.994;6.940;2023-05-08T03:15:27;11.80;99.90
66088;DHT22;52872;52.994;6.940;2023-05-08T03:18:07;11.80;99.90
66088;DHT22;52872;52.994;6.940;2023-05-08T03:20:43;11.70;99.90
66088;DHT22;52872;52.994;6.940;2023-05-08T03:23:12;11.70;99.90
66088;DHT22;52872;52.994;6.940;2023-05-08T03:25:41;11.70;99.90
66088;DHT22;52872;52.994;6.940;2023-05-08T03:28:10;11.70;99.90
66088;DHT22;52872;52.994;6.940;2023-05-08T03:30:41;11.70;99.90
66088;DHT22;52872;52.994;6.940;2023-05-08T03:33:11;11.70;99.90
66088;DHT22;52872;52.994;6.940;2023-05-08T03:35:39;11.70;99.90
66088;DHT22;52872;52.994;6.940;2023-05-08T03:38:08;11.60;99.90
66088;DHT22;52872;52.994;6.940;2023-05-08T03:40:35;11.60;99.90
66088;DHT22;52872;52.994;6.940;2023-05-08T03:43:08;11.60;99.90
66088;DHT22;52872;52.994;6.940;2023-05-08T03:45:37;11.60;99.90
66088;DHT22;52872;52.994;6.940;2023-05-08T03:48:06;11.60;99.90
66088;DHT22;52872;52.994;6.940;2023-05-08T03:50:35;11.50;99.90
66088;DHT22;52872;52.994;6.940;2023-05-08T03:53:04;11.50;99.90
66088;DHT22;52872;52.994;6.940;2023-05-08T03:55:31;11.50;99.90
66088;DHT22;52872;52.994;6.940;2023-05-08T03:58:04;11.50;99.90
66088;DHT22;52872;52.994;6.940;2023-05-08T04:03:23;11.50;99.90
66088;DHT22;52872;52.994;6.940;2023-05-08T04:05:59;11.50;99.90
66088;DHT22;52872;52.994;6.940;2023-05-08T04:08:32;11.50;99.90
66088;DHT22;52872;52.994;6.940;2023-05-08T04:11:05;11.40;99.90
66088;DHT22;52872;52.994;6.940;2023-05-08T04:13:41;11.40;99.90
66088;DHT22;52872;52.994;6.940;2023-05-08T04:16:13;11.40;99.90
66088;DHT22;52872;52.994;6.940;2023-05-08T04:18:45;11.40;99.90
66088;DHT22;52872;52.994;6.940;2023-05-08T04:21:18;11.40;99.90
66088;DHT22;52872;52.994;6.940;2023-05-08T04:23:47;11.40;99.90
66088;DHT22;52872;52.994;6.940;2023-05-08T04:26:17;11.40;99.90
66088;DHT22;52872;52.994;6.940;2023-05-08T04:28:46;11.40;99.90
66088;DHT22;52872;52.994;6.940;2023-05-08T04:31:15;11.30;99.90
66088;DHT22;52872;52.994;6.940;2023-05-08T04:33:44;11.40;99.90
66088;DHT22;52872;52.994;6.940;2023-05-08T04:36:12;11.40;99.90
66088;DHT22;52872;52.994;6.940;2023-05-08T04:38:41;11.40;99.90
66088;DHT22;52872;52.994;6.940;2023-05-08T04:41:09;11.40;99.90
66088;DHT22;52872;52.994;6.940;2023-05-08T04:43:36;11.40;99.90
66088;DHT22;52872;52.994;6.940;2023-05-08T04:46:04;11.40;99.90
66088;DHT22;52872;52.994;6.940;2023-05-08T04:48:32;11.50;99.90
66088;DHT22;52872;52.994;6.940;2023-05-08T04:50:59;11.60;99.90
66088;DHT22;52872;52.994;6.940;2023-05-08T04:53:27;12.00;99.90
66088;DHT22;52872;52.994;6.940;2023-05-08T04:55:54;12.40;99.90
66088;DHT22;52872;52.994;6.940;2023-05-08T04:58:21;12.70;99.90
66088;DHT22;52872;52.994;6.940;2023-05-08T05:00:48;12.90;99.90
66088;DHT22;52872;52.994;6.940;2023-05-08T05:03:16;13.00;99.90
66088;DHT22;52872;52.994;6.940;2023-05-08T05:05:43;13.20;99.90
66088;DHT22;52872;52.994;6.940;2023-05-08T05:08:10;13.20;99.90
66088;DHT22;52872;52.994;6.940;2023-05-08T05:10:40;13.30;99.90
66088;DHT22;52872;52.994;6.940;2023-05-08T05:13:07;13.40;99.90
66088;DHT22;52872;52.994;6.940;2023-05-08T05:15:34;13.30;99.90
66088;DHT22;52872;52.994;6.940;2023-05-08T05:18:01;13.30;99.90
66088;DHT22;52872;52.994;6.940;2023-05-08T05:20:28;13.20;99.90
66088;DHT22;52872;52.994;6.940;2023-05-08T05:22:55;13.00;99.90
66088;DHT22;52872;52.994;6.940;2023-05-08T05:25:24;12.90;99.90
66088;DHT22;52872;52.994;6.940;2023-05-08T05:27:51;13.00;99.90
66088;DHT22;52872;52.994;6.940;2023-05-08T05:30:18;13.10;99.90
66088;DHT22;52872;52.994;6.940;2023-05-08T05:32:45;13.10;99.90
66088;DHT22;52872;52.994;6.940;2023-05-08T05:35:12;13.20;99.90
66088;DHT22;52872;52.994;6.940;2023-05-08T05:37:40;13.40;99.90
66088;DHT22;52872;52.994;6.940;2023-05-08T05:40:08;13.80;99.90
66088;DHT22;52872;52.994;6.940;2023-05-08T05:42:36;14.30;99.90
66088;DHT22;52872;52.994;6.940;2023-05-08T05:45:04;14.80;99.90
66088;DHT22;52872;52.994;6.940;2023-05-08T05:47:31;15.30;99.90
66088;DHT22;52872;52.994;6.940;2023-05-08T05:49:59;15.60;99.90
66088;DHT22;52872;52.994;6.940;2023-05-08T05:52:25;15.80;99.90
66088;DHT22;52872;52.994;6.940;2023-05-08T05:54:52;15.80;99.90
66088;DHT22;52872;52.994;6.940;2023-05-08T05:57:19;15.80;99.90
66088;DHT22;52872;52.994;6.940;2023-05-08T05:59:46;15.80;99.90
66088;DHT22;52872;52.994;6.940;2023-05-08T06:02:13;15.90;99.90
66088;DHT22;52872;52.994;6.940;2023-05-08T06:04:44;16.00;99.90
66088;DHT22;52872;52.994;6.940;2023-05-08T06:07:11;16.20;99.90
66088;DHT22;52872;52.994;6.940;2023-05-08T06:09:38;16.20;99.90
66088;DHT22;52872;52.994;6.940;2023-05-08T06:12:05;16.40;99.90
66088;DHT22;52872;52.994;6.940;2023-05-08T06:14:32;16.70;99.90
66088;DHT22;52872;52.994;6.940;2023-05-08T06:16:59;16.90;99.90
66088;DHT22;52872;52.994;6.940;2023-05-08T06:19:26;17.20;99.90
66088;DHT22;52872;52.994;6.940;2023-05-08T06:21:54;17.60;99.90
66088;DHT22;52872;52.994;6.940;2023-05-08T06:24:21;17.70;99.90
66088;DHT22;52872;52.994;6.940;2023-05-08T06:26:48;17.80;99.90
66088;DHT22;52872;52.994;6.940;2023-05-08T06:29:15;17.90;99.90
66088;DHT22;52872;52.994;6.940;2023-05-08T06:31:42;18.00;99.90
66088;DHT22;52872;52.994;6.940;2023-05-08T06:34:09;18.00;99.90
66088;DHT22;52872;52.994;6.940;2023-05-08T06:36:36;17.90;99.90
66088;DHT22;52872;52.994;6.940;2023-05-08T06:39:04;17.80;99.90
66088;DHT22;52872;52.994;6.940;2023-05-08T06:41:34;17.70;99.90
66088;DHT22;52872;52.994;6.940;2023-05-08T06:44:01;17.60;99.90
66088;DHT22;52872;52.994;6.940;2023-05-08T06:46:28;17.40;99.90
66088;DHT22;52872;52.994;6.940;2023-05-08T06:48:55;17.30;99.90
66088;DHT22;52872;52.994;6.940;2023-05-08T06:51:22;17.20;99.90
66088;DHT22;52872;52.994;6.940;2023-05-08T06:53:49;17.10;99.90
66088;DHT22;52872;52.994;6.940;2023-05-08T06:56:16;17.00;99.90
66088;DHT22;52872;52.994;6.940;2023-05-08T06:58:43;17.10;99.90
66088;DHT22;52872;52.994;6.940;2023-05-08T07:01:22;17.20;99.90
66088;DHT22;52872;52.994;6.940;2023-05-08T07:03:49;17.10;99.90
66088;DHT22;52872;52.994;6.940;2023-05-08T07:06:16;17.10;99.90
66088;DHT22;52872;52.994;6.940;2023-05-08T07:08:43;17.10;99.90
66088;DHT22;52872;52.994;6.940;2023-05-08T07:11:10;17.20;99.90
66088;DHT22;52872;52.994;6.940;2023-05-08T07:13:37;17.30;99.90
66088;DHT22;52872;52.994;6.940;2023-05-08T07:16:10;17.40;99.90
66088;DHT22;52872;52.994;6.940;2023-05-08T07:18:37;17.60;99.90
66088;DHT22;52872;52.994;6.940;2023-05-08T07:21:04;17.50;99.90
66088;DHT22;52872;52.994;6.940;2023-05-08T07:23:31;17.70;99.90
66088;DHT22;52872;52.994;6.940;2023-05-08T07:25:58;17.90;99.90
66088;DHT22;52872;52.994;6.940;2023-05-08T07:28:25;18.00;99.90
66088;DHT22;52872;52.994;6.940;2023-05-08T07:30:52;18.20;99.90
66088;DHT22;52872;52.994;6.940;2023-05-08T07:33:19;18.40;99.90
66088;DHT22;52872;52.994;6.940;2023-05-08T07:35:46;18.60;99.90
66088;DHT22;52872;52.994;6.940;2023-05-08T07:38:13;18.80;99.90
66088;DHT22;52872;52.994;6.940;2023-05-08T07:40:40;18.90;99.90
66088;DHT22;52872;52.994;6.940;2023-05-08T07:43:07;19.00;99.90
66088;DHT22;52872;52.994;6.940;2023-05-08T07:45:34;19.10;99.90
66088;DHT22;52872;52.994;6.940;2023-05-08T07:48:02;19.20;99.90
66088;DHT22;52872;52.994;6.940;2023-05-08T07:50:29;19.30;99.90
66088;DHT22;52872;52.994;6.940;2023-05-08T07:52:56;19.30;99.90
66088;DHT22;52872;52.994;6.940;2023-05-08T07:55:23;19.40;99.90
66088;DHT22;52872;52.994;6.940;2023-05-08T07:57:50;19.50;99.90
66088;DHT22;52872;52.994;6.940;2023-05-08T08:00:17;19.70;99.90
66088;DHT22;52872;52.994;6.940;2023-05-08T08:02:44;19.90;99.90
66088;DHT22;52872;52.994;6.940;2023-05-08T08:05:11;20.10;99.90
66088;DHT22;52872;52.994;6.940;2023-05-08T08:07:38;20.30;99.90
66088;DHT22;52872;52.994;6.940;2023-05-08T08:10:06;20.90;99.90
66088;DHT22;52872;52.994;6.940;2023-05-08T08:12:33;21.90;99.90
66088;DHT22;52872;52.994;6.940;2023-05-08T08:15:00;23.10;99.20
66088;DHT22;52872;52.994;6.940;2023-05-08T08:17:27;24.40;98.00
66088;DHT22;52872;52.994;6.940;2023-05-08T08:19:55;25.40;95.20
66088;DHT22;52872;52.994;6.940;2023-05-08T08:22:23;26.10;94.60
66088;DHT22;52872;52.994;6.940;2023-05-08T08:24:53;26.80;93.00
66088;DHT22;52872;52.994;6.940;2023-05-08T08:27:21;27.20;92.10
66088;DHT22;52872;52.994;6.940;2023-05-08T08:29:49;27.60;91.10
66088;DHT22;52872;52.994;6.940;2023-05-08T08:32:18;27.90;89.80
66088;DHT22;52872;52.994;6.940;2023-05-08T08:34:45;28.10;88.90
66088;DHT22;52872;52.994;6.940;2023-05-08T08:37:11;28.40;87.80
66088;DHT22;52872;52.994;6.940;2023-05-08T08:39:42;28.50;85.80
66088;DHT22;52872;52.994;6.940;2023-05-08T08:42:09;28.70;82.50
66088;DHT22;52872;52.994;6.940;2023-05-08T08:44:38;28.40;83.10
66088;DHT22;52872;52.994;6.940;2023-05-08T08:47:06;28.10;82.50
66088;DHT22;52872;52.994;6.940;2023-05-08T08:49:41;28.10;81.60
66088;DHT22;52872;52.994;6.940;2023-05-08T08:52:39;28.00;81.20
66088;DHT22;52872;52.994;6.940;2023-05-08T08:55:12;27.60;78.00
66088;DHT22;52872;52.994;6.940;2023-05-08T09:00:22;26.60;81.60
66088;DHT22;52872;52.994;6.940;2023-05-08T09:02:51;26.10;85.30
66088;DHT22;52872;52.994;6.940;2023-05-08T09:05:21;25.50;85.80
66088;DHT22;52872;52.994;6.940;2023-05-08T09:07:50;24.90;83.90
66088;DHT22;52872;52.994;6.940;2023-05-08T09:10:21;24.10;88.90
66088;DHT22;52872;52.994;6.940;2023-05-08T09:12:48;23.50;90.60
66088;DHT22;52872;52.994;6.940;2023-05-08T09:15:16;23.10;91.20
66088;DHT22;52872;52.994;6.940;2023-05-08T09:17:42;22.70;92.20
66088;DHT22;52872;52.994;6.940;2023-05-08T09:20:10;22.40;93.20
66088;DHT22;52872;52.994;6.940;2023-05-08T09:22:39;22.00;93.50
66088;DHT22;52872;52.994;6.940;2023-05-08T09:25:07;21.80;94.80
66088;DHT22;52872;52.994;6.940;2023-05-08T09:27:34;21.70;95.50
66088;DHT22;52872;52.994;6.940;2023-05-08T09:30:07;21.60;95.80
66088;DHT22;52872;52.994;6.940;2023-05-08T09:32:41;21.50;96.20
66088;DHT22;52872;52.994;6.940;2023-05-08T09:35:09;21.30;96.80
66088;DHT22;52872;52.994;6.940;2023-05-08T09:37:38;21.20;97.10
66088;DHT22;52872;52.994;6.940;2023-05-08T09:40:21;21.10;97.30
66088;DHT22;52872;52.994;6.940;2023-05-08T09:42:49;21.00;96.70
66088;DHT22;52872;52.994;6.940;2023-05-08T09:45:30;20.80;97.20
66088;DHT22;52872;52.994;6.940;2023-05-08T09:47:58;20.80;98.20
66088;DHT22;52872;52.994;6.940;2023-05-08T09:50:25;20.70;98.60
66088;DHT22;52872;52.994;6.940;2023-05-08T09:52:53;20.70;98.50
66088;DHT22;52872;52.994;6.940;2023-05-08T09:55:20;20.70;98.80
66088;DHT22;52872;52.994;6.940;2023-05-08T09:57:55;20.60;99.20
66088;DHT22;52872;52.994;6.940;2023-05-08T10:00:27;20.70;98.50
66088;DHT22;52872;52.994;6.940;2023-05-08T10:02:56;20.80;99.70
66088;DHT22;52872;52.994;6.940;2023-05-08T10:05:26;20.90;99.40
66088;DHT22;52872;52.994;6.940;2023-05-08T10:07:53;20.90;99.20
66088;DHT22;52872;52.994;6.940;2023-05-08T10:10:25;21.00;99.00
66088;DHT22;52872;52.994;6.940;2023-05-08T10:12:57;21.00;98.70
66088;DHT22;52872;52.994;6.940;2023-05-08T10:15:27;21.00;98.90
66088;DHT22;52872;52.994;6.940;2023-05-08T10:18:06;20.90;99.50
66088;DHT22;52872;52.994;6.940;2023-05-08T10:20:40;21.10;99.90
66088;DHT22;52872;52.994;6.940;2023-05-08T10:23:10;21.10;99.60
66088;DHT22;52872;52.994;6.940;2023-05-08T10:25:47;21.30;99.90
66088;DHT22;52872;52.994;6.940;2023-05-08T10:30:51;21.30;99.50
66088;DHT22;52872;52.994;6.940;2023-05-08T10:33:26;21.40;99.10
66088;DHT22;52872;52.994;6.940;2023-05-08T10:35:56;21.40;99.10
66088;DHT22;52872;52.994;6.940;2023-05-08T10:38:23;21.40;99.50
66088;DHT22;52872;52.994;6.940;2023-05-08T10:40:52;21.30;99.60
66088;DHT22;52872;52.994;6.940;2023-05-08T10:43:24;21.40;98.90
66088;DHT22;52872;52.994;6.940;2023-05-08T10:45:52;21.50;99.90
66088;DHT22;52872;52.994;6.940;2023-05-08T10:54:20;22.00;99.10
66088;DHT22;52872;52.994;6.940;2023-05-08T10:56:50;22.10;98.20
66088;DHT22;52872;52.994;6.940;2023-05-08T10:59:18;22.20;99.00
66088;DHT22;52872;52.994;6.940;2023-05-08T11:01:48;22.40;98.70
66088;DHT22;52872;52.994;6.940;2023-05-08T11:04:20;22.40;98.50
66088;DHT22;52872;52.994;6.940;2023-05-08T11:06:48;22.60;98.60
66088;DHT22;52872;52.994;6.940;2023-05-08T11:09:26;22.60;98.50
66088;DHT22;52872;52.994;6.940;2023-05-08T11:14:41;22.40;97.60
66088;DHT22;52872;52.994;6.940;2023-05-08T11:17:09;22.50;99.20
66088;DHT22;52872;52.994;6.940;2023-05-08T11:19:36;22.60;99.70
66088;DHT22;52872;52.994;6.940;2023-05-08T11:27:14;22.70;97.50
66088;DHT22;52872;52.994;6.940;2023-05-08T11:29:41;22.70;98.40
66088;DHT22;52872;52.994;6.940;2023-05-08T11:32:10;22.70;98.20
66088;DHT22;52872;52.994;6.940;2023-05-08T11:37:09;22.90;98.80
66088;DHT22;52872;52.994;6.940;2023-05-08T11:39:36;23.00;99.00
66088;DHT22;52872;52.994;6.940;2023-05-08T11:45:06;23.40;98.20
66088;DHT22;52872;52.994;6.940;2023-05-08T11:47:41;23.50;98.40
66088;DHT22;52872;52.994;6.940;2023-05-08T11:50:10;23.70;98.80
66088;DHT22;52872;52.994;6.940;2023-05-08T11:52:39;23.90;99.20
66088;DHT22;52872;52.994;6.940;2023-05-08T11:55:10;24.10;99.30
66088;DHT22;52872;52.994;6.940;2023-05-08T11:57:38;24.10;97.00
66088;DHT22;52872;52.994;6.940;2023-05-08T12:00:09;24.20;98.20
66088;DHT22;52872;52.994;6.940;2023-05-08T12:02:37;24.30;97.80
66088;DHT22;52872;52.994;6.940;2023-05-08T12:05:08;24.40;98.10
66088;DHT22;52872;52.994;6.940;2023-05-08T12:07:42;24.50;97.50
66088;DHT22;52872;52.994;6.940;2023-05-08T12:10:10;24.50;97.00
66088;DHT22;52872;52.994;6.940;2023-05-08T12:12:42;24.50;97.10
66088;DHT22;52872;52.994;6.940;2023-05-08T12:15:11;24.40;95.00
66088;DHT22;52872;52.994;6.940;2023-05-08T12:17:39;24.10;95.60
66088;DHT22;52872;52.994;6.940;2023-05-08T12:20:15;24.10;96.30
66088;DHT22;52872;52.994;6.940;2023-05-08T12:22:51;24.10;97.10
66088;DHT22;52872;52.994;6.940;2023-05-08T12:25:18;24.20;96.20
66088;DHT22;52872;52.994;6.940;2023-05-08T12:27:45;24.20;97.60
66088;DHT22;52872;52.994;6.940;2023-05-08T12:30:13;24.40;97.70
66088;DHT22;52872;52.994;6.940;2023-05-08T12:32:41;24.60;97.30
66088;DHT22;52872;52.994;6.940;2023-05-08T12:35:10;24.70;96.40
66088;DHT22;52872;52.994;6.940;2023-05-08T12:37:37;24.80;97.30
66088;DHT22;52872;52.994;6.940;2023-05-08T12:40:05;24.70;96.80
66088;DHT22;52872;52.994;6.940;2023-05-08T12:42:46;24.90;97.80
66088;DHT22;52872;52.994;6.940;2023-05-08T12:45:22;25.10;97.70
66088;DHT22;52872;52.994;6.940;2023-05-08T12:47:51;25.10;96.30
66088;DHT22;52872;52.994;6.940;2023-05-08T12:50:20;25.00;96.90
66088;DHT22;52872;52.994;6.940;2023-05-08T12:52:47;24.90;96.70
66088;DHT22;52872;52.994;6.940;2023-05-08T12:55:26;24.90;96.90
66088;DHT22;52872;52.994;6.940;2023-05-08T13:00:43;24.80;95.40
66088;DHT22;52872;52.994;6.940;2023-05-08T13:03:21;24.70;96.80
66088;DHT22;52872;52.994;6.940;2023-05-08T13:05:51;24.80;96.40
66088;DHT22;52872;52.994;6.940;2023-05-08T13:08:35;25.00;97.50
66088;DHT22;52872;52.994;6.940;2023-05-08T13:11:06;25.50;96.20
66088;DHT22;52872;52.994;6.940;2023-05-08T13:13:36;25.80;96.70
66088;DHT22;52872;52.994;6.940;2023-05-08T13:16:05;26.00;95.60
66088;DHT22;52872;52.994;6.940;2023-05-08T13:18:33;26.10;94.70
66088;DHT22;52872;52.994;6.940;2023-05-08T13:21:02;26.10;95.30
66088;DHT22;52872;52.994;6.940;2023-05-08T13:23:51;26.00;94.80
66088;DHT22;52872;52.994;6.940;2023-05-08T13:26:18;26.10;94.80
66088;DHT22;52872;52.994;6.940;2023-05-08T13:28:45;25.90;95.40
66088;DHT22;52872;52.994;6.940;2023-05-08T13:31:12;26.00;95.60
66088;DHT22;52872;52.994;6.940;2023-05-08T13:33:39;25.90;94.00
66088;DHT22;52872;52.994;6.940;2023-05-08T13:36:06;25.90;94.80
66088;DHT22;52872;52.994;6.940;2023-05-08T13:38:33;26.00;95.40
66088;DHT22;52872;52.994;6.940;2023-05-08T13:41:00;26.00;95.00
66088;DHT22;52872;52.994;6.940;2023-05-08T13:43:27;25.90;94.60
66088;DHT22;52872;52.994;6.940;2023-05-08T13:45:54;25.80;95.20
66088;DHT22;52872;52.994;6.940;2023-05-08T13:48:21;25.90;95.50
66088;DHT22;52872;52.994;6.940;2023-05-08T13:50:48;26.00;95.40
66088;DHT22;52872;52.994;6.940;2023-05-08T13:53:15;26.30;95.20
66088;DHT22;52872;52.994;6.940;2023-05-08T13:55:42;26.60;95.60
66088;DHT22;52872;52.994;6.940;2023-05-08T13:58:09;26.80;95.20
66088;DHT22;52872;52.994;6.940;2023-05-08T14:00:36;26.90;94.40
66088;DHT22;52872;52.994;6.940;2023-05-08T14:03:04;27.10;94.90
66088;DHT22;52872;52.994;6.940;2023-05-08T14:05:31;27.30;95.30
66088;DHT22;52872;52.994;6.940;2023-05-08T14:07:57;27.50;95.20
66088;DHT22;52872;52.994;6.940;2023-05-08T14:10:24;27.60;94.10
66088;DHT22;52872;52.994;6.940;2023-05-08T14:12:51;27.50;93.60
66088;DHT22;52872;52.994;6.940;2023-05-08T14:15:18;27.30;93.90
66088;DHT22;52872;52.994;6.940;2023-05-08T14:17:45;27.30;94.80
66088;DHT22;52872;52.994;6.940;2023-05-08T14:20:14;27.30;94.30
66088;DHT22;52872;52.994;6.940;2023-05-08T14:22:40;27.10;94.50
66088;DHT22;52872;52.994;6.940;2023-05-08T14:25:08;27.10;95.00
66088;DHT22;52872;52.994;6.940;2023-05-08T14:27:35;27.00;94.80
66088;DHT22;52872;52.994;6.940;2023-05-08T14:30:02;26.80;94.60
66088;DHT22;52872;52.994;6.940;2023-05-08T14:32:29;27.00;94.70
66088;DHT22;52872;52.994;6.940;2023-05-08T14:34:56;26.90;94.40
66088;DHT22;52872;52.994;6.940;2023-05-08T14:37:23;26.90;94.40
66088;DHT22;52872;52.994;6.940;2023-05-08T14:39:51;26.70;93.90
66088;DHT22;52872;52.994;6.940;2023-05-08T14:42:19;26.60;94.30
66088;DHT22;52872;52.994;6.940;2023-05-08T14:44:49;26.40;94.80
66088;DHT22;52872;52.994;6.940;2023-05-08T14:47:16;26.30;95.30
66088;DHT22;52872;52.994;6.940;2023-05-08T14:49:43;26.20;95.10
66088;DHT22;52872;52.994;6.940;2023-05-08T14:52:10;26.00;94.00
66088;DHT22;52872;52.994;6.940;2023-05-08T14:54:37;25.80;95.10
66088;DHT22;52872;52.994;6.940;2023-05-08T14:57:04;25.50;95.00
66088;DHT22;52872;52.994;6.940;2023-05-08T14:59:31;25.40;95.80
66088;DHT22;52872;52.994;6.940;2023-05-08T15:01:58;25.40;96.50
66088;DHT22;52872;52.994;6.940;2023-05-08T15:04:25;25.30;96.80
66088;DHT22;52872;52.994;6.940;2023-05-08T15:06:52;25.20;97.20
66088;DHT22;52872;52.994;6.940;2023-05-08T15:09:18;25.10;98.20
66088;DHT22;52872;52.994;6.940;2023-05-08T15:11:45;24.90;99.20
66088;DHT22;52872;52.994;6.940;2023-05-08T15:14:12;24.70;99.60
66088;DHT22;52872;52.994;6.940;2023-05-08T15:16:39;24.50;99.90
66088;DHT22;52872;52.994;6.940;2023-05-08T15:19:06;24.00;99.90
66088;DHT22;52872;52.994;6.940;2023-05-08T15:21:35;23.80;99.90
66088;DHT22;52872;52.994;6.940;2023-05-08T15:24:02;23.70;99.90
66088;DHT22;52872;52.994;6.940;2023-05-08T15:26:29;23.50;99.90
66088;DHT22;52872;52.994;6.940;2023-05-08T15:28:56;23.40;99.90
66088;DHT22;52872;52.994;6.940;2023-05-08T15:31:23;23.20;99.90
66088;DHT22;52872;52.994;6.940;2023-05-08T15:33:50;23.10;99.90
66088;DHT22;52872;52.994;6.940;2023-05-08T15:36:17;23.00;99.90
66088;DHT22;52872;52.994;6.940;2023-05-08T15:38:44;22.90;99.90
66088;DHT22;52872;52.994;6.940;2023-05-08T15:41:10;22.80;99.90
66088;DHT22;52872;52.994;6.940;2023-05-08T15:43:41;22.70;99.90
66088;DHT22;52872;52.994;6.940;2023-05-08T15:46:08;22.60;99.90
66088;DHT22;52872;52.994;6.940;2023-05-08T15:48:35;22.50;99.90
66088;DHT22;52872;52.994;6.940;2023-05-08T15:51:02;22.50;99.90
66088;DHT22;52872;52.994;6.940;2023-05-08T15:53:31;22.50;99.90
66088;DHT22;52872;52.994;6.940;2023-05-08T15:55:58;22.50;99.90
66088;DHT22;52872;52.994;6.940;2023-05-08T15:58:25;22.60;99.90
66088;DHT22;52872;52.994;6.940;2023-05-08T16:00:53;22.70;99.90
66088;DHT22;52872;52.994;6.940;2023-05-08T16:03:20;22.70;99.90
66088;DHT22;52872;52.994;6.940;2023-05-08T16:05:47;22.90;99.90
66088;DHT22;52872;52.994;6.940;2023-05-08T16:08:14;23.00;99.90
66088;DHT22;52872;52.994;6.940;2023-05-08T16:10:41;23.00;99.90
66088;DHT22;52872;52.994;6.940;2023-05-08T16:13:08;23.10;99.90
66088;DHT22;52872;52.994;6.940;2023-05-08T16:15:35;23.10;99.90
66088;DHT22;52872;52.994;6.940;2023-05-08T16:18:02;23.10;99.90
66088;DHT22;52872;52.994;6.940;2023-05-08T16:20:29;23.10;99.90
66088;DHT22;52872;52.994;6.940;2023-05-08T16:22:57;23.00;99.90
66088;DHT22;52872;52.994;6.940;2023-05-08T16:25:25;23.00;99.90
66088;DHT22;52872;52.994;6.940;2023-05-08T16:27:52;23.00;99.90
66088;DHT22;52872;52.994;6.940;2023-05-08T16:30:19;23.00;99.90
66088;DHT22;52872;52.994;6.940;2023-05-08T16:32:46;23.00;99.90